AEE56N LMML-LGAV
Flight info
| Callsign | AEE56N |
|---|---|
| Flight time | 1h 17m |
| Altitude | 36000 |
| Route | VESOD DCT INROF DCT RUTOM/N0444F370 DCT ARA UY144 NEMES |
| Aircraft | A320/M-SDE3FGHIRWY/LB1 |
Departure
| Time | 2026-05-04 21:33 |
|---|---|
| Airport | Malta International Airport (LMML) |
Arrival
| Time | 2026-05-04 22:50 |
|---|---|
| Airport | Athens Eleftherios Venizelos International Airport (LGAV) |
| Time | Latitude | Longitude | Altitude | Speed | Heading |
|---|---|---|---|---|---|
| 2026-05-04 21:09 | 35.84862 | 14.49455 | 259 ft | 0 kts | 359° |
| 2026-05-04 21:24 | 35.84852 | 14.49456 | 259 ft | 4 kts | 360° |
| 2026-05-04 21:24 | 35.84826 | 14.49456 | 259 ft | 2 kts | 358° |
| 2026-05-04 21:25 | 35.84804 | 14.49457 | 259 ft | 4 kts | 350° |
| 2026-05-04 21:25 | 35.84779 | 14.49467 | 259 ft | 4 kts | 330° |
| 2026-05-04 21:25 | 35.84762 | 14.49481 | 259 ft | 0 kts | 315° |
| 2026-05-04 21:27 | 35.84763 | 14.49480 | 259 ft | 1 kts | 315° |
| 2026-05-04 21:28 | 35.84771 | 14.49470 | 259 ft | 3 kts | 313° |
| 2026-05-04 21:28 | 35.84790 | 14.49445 | 259 ft | 5 kts | 313° |
| 2026-05-04 21:28 | 35.84819 | 14.49408 | 259 ft | 7 kts | 316° |
| 2026-05-04 21:28 | 35.84859 | 14.49360 | 259 ft | 9 kts | 314° |
| 2026-05-04 21:29 | 35.84908 | 14.49299 | 259 ft | 11 kts | 315° |
| 2026-05-04 21:29 | 35.84937 | 14.49210 | 258 ft | 7 kts | 266° |
| 2026-05-04 21:29 | 35.84923 | 14.49178 | 258 ft | 5 kts | 229° |
| 2026-05-04 21:29 | 35.84897 | 14.49137 | 258 ft | 7 kts | 253° |
| 2026-05-04 21:30 | 35.84917 | 14.49080 | 258 ft | 9 kts | 308° |
| 2026-05-04 21:30 | 35.84927 | 14.49007 | 258 ft | 10 kts | 246° |
| 2026-05-04 21:30 | 35.84914 | 14.48987 | 258 ft | 0 kts | 223° |
| 2026-05-04 21:31 | 35.84856 | 14.48976 | 258 ft | 9 kts | 167° |
| 2026-05-04 21:31 | 35.84792 | 14.48962 | 259 ft | 10 kts | 206° |
| 2026-05-04 21:31 | 35.84753 | 14.48982 | 259 ft | 0 kts | 135° |
| 2026-05-04 21:32 | 35.84739 | 14.48998 | 259 ft | 11 kts | 135° |
| 2026-05-04 21:32 | 35.84494 | 14.49303 | 259 ft | 89 kts | 134° |
| 2026-05-04 21:32 | 35.83895 | 14.50044 | 260 ft | 149 kts | 135° |
| 2026-05-04 21:32 | 35.83155 | 14.50999 | 820 ft | 157 kts | 132° |
| 2026-05-04 21:33 | 35.82413 | 14.52025 | 1657 ft | 160 kts | 134° |
| 2026-05-04 21:33 | 35.81671 | 14.53021 | 2431 ft | 158 kts | 134° |
| 2026-05-04 21:33 | 35.80920 | 14.54003 | 3013 ft | 157 kts | 133° |
| 2026-05-04 21:33 | 35.80430 | 14.55192 | 3540 ft | 161 kts | 98° |
| 2026-05-04 21:34 | 35.80656 | 14.56598 | 3805 ft | 182 kts | 60° |
| 2026-05-04 21:34 | 35.81380 | 14.57995 | 4048 ft | 205 kts | 57° |
| 2026-05-04 21:34 | 35.82198 | 14.59550 | 4279 ft | 229 kts | 57° |
| 2026-05-04 21:34 | 35.83113 | 14.61291 | 4644 ft | 254 kts | 57° |
| 2026-05-04 21:35 | 35.84107 | 14.63189 | 5245 ft | 269 kts | 57° |
| 2026-05-04 21:35 | 35.85129 | 14.65151 | 6078 ft | 274 kts | 57° |
| 2026-05-04 21:35 | 35.86161 | 14.67141 | 6937 ft | 277 kts | 56° |
| 2026-05-04 21:35 | 35.87206 | 14.69155 | 7763 ft | 281 kts | 56° |
| 2026-05-04 21:36 | 35.88266 | 14.71198 | 8592 ft | 284 kts | 56° |
| 2026-05-04 21:36 | 35.89337 | 14.73268 | 9413 ft | 288 kts | 55° |
| 2026-05-04 21:36 | 35.90421 | 14.75362 | 10218 ft | 291 kts | 54° |
| 2026-05-04 21:36 | 35.91548 | 14.77536 | 10568 ft | 312 kts | 54° |
| 2026-05-04 21:37 | 35.92762 | 14.79871 | 10761 ft | 335 kts | 55° |
| 2026-05-04 21:37 | 35.94050 | 14.82356 | 11097 ft | 350 kts | 55° |
| 2026-05-04 21:37 | 35.95370 | 14.84917 | 11697 ft | 356 kts | 55° |
| 2026-05-04 21:37 | 35.96700 | 14.87512 | 12336 ft | 361 kts | 55° |
| 2026-05-04 21:38 | 35.98050 | 14.90151 | 12970 ft | 365 kts | 55° |
| 2026-05-04 21:38 | 35.99414 | 14.92818 | 13614 ft | 370 kts | 55° |
| 2026-05-04 21:38 | 36.00792 | 14.95511 | 14227 ft | 373 kts | 55° |
| 2026-05-04 21:38 | 36.02192 | 14.98240 | 14795 ft | 377 kts | 54° |
| 2026-05-04 21:39 | 36.03602 | 15.00983 | 15346 ft | 381 kts | 54° |
| 2026-05-04 21:39 | 36.05030 | 15.03761 | 15894 ft | 385 kts | 54° |
| 2026-05-04 21:39 | 36.06472 | 15.06565 | 16422 ft | 388 kts | 54° |
| 2026-05-04 21:39 | 36.07928 | 15.09398 | 16969 ft | 392 kts | 54° |
| 2026-05-04 21:40 | 36.09393 | 15.12258 | 17520 ft | 396 kts | 54° |
| 2026-05-04 21:40 | 36.10873 | 15.15154 | 18079 ft | 399 kts | 54° |
| 2026-05-04 21:40 | 36.12361 | 15.18067 | 18604 ft | 403 kts | 54° |
| 2026-05-04 21:40 | 36.13847 | 15.20977 | 19095 ft | 407 kts | 54° |
| 2026-05-04 21:41 | 36.15362 | 15.23948 | 19583 ft | 410 kts | 54° |
| 2026-05-04 21:41 | 36.16885 | 15.26944 | 20088 ft | 413 kts | 54° |
| 2026-05-04 21:41 | 36.18415 | 15.29965 | 20593 ft | 416 kts | 54° |
| 2026-05-04 21:41 | 36.19956 | 15.33015 | 21087 ft | 419 kts | 54° |
| 2026-05-04 21:42 | 36.21509 | 15.36082 | 21551 ft | 422 kts | 54° |
| 2026-05-04 21:42 | 36.23078 | 15.39173 | 21998 ft | 425 kts | 54° |
| 2026-05-04 21:42 | 36.24655 | 15.42278 | 22465 ft | 428 kts | 54° |
| 2026-05-04 21:42 | 36.26247 | 15.45416 | 22893 ft | 431 kts | 54° |
| 2026-05-04 21:43 | 36.27846 | 15.48571 | 23330 ft | 434 kts | 54° |
| 2026-05-04 21:43 | 36.29456 | 15.51750 | 23758 ft | 437 kts | 54° |
| 2026-05-04 21:43 | 36.31073 | 15.54950 | 24115 ft | 440 kts | 54° |
| 2026-05-04 21:43 | 36.32699 | 15.58174 | 24493 ft | 442 kts | 54° |
| 2026-05-04 21:44 | 36.34331 | 15.61418 | 24858 ft | 444 kts | 54° |
| 2026-05-04 21:44 | 36.35968 | 15.64677 | 25229 ft | 446 kts | 54° |
| 2026-05-04 21:44 | 36.37611 | 15.67951 | 25590 ft | 448 kts | 54° |
| 2026-05-04 21:44 | 36.39266 | 15.71250 | 25948 ft | 450 kts | 54° |
| 2026-05-04 21:45 | 36.40927 | 15.74555 | 26309 ft | 452 kts | 54° |
| 2026-05-04 21:45 | 36.42596 | 15.77877 | 26683 ft | 454 kts | 54° |
| 2026-05-04 21:45 | 36.44268 | 15.81208 | 27053 ft | 456 kts | 54° |
| 2026-05-04 21:45 | 36.45951 | 15.84561 | 27416 ft | 458 kts | 54° |
| 2026-05-04 21:46 | 36.47639 | 15.87932 | 27779 ft | 461 kts | 54° |
| 2026-05-04 21:46 | 36.49337 | 15.91329 | 28123 ft | 463 kts | 54° |
| 2026-05-04 21:46 | 36.51213 | 15.94566 | 28467 ft | 461 kts | 47° |
| 2026-05-04 21:46 | 36.53227 | 15.97685 | 28792 ft | 464 kts | 47° |
| 2026-05-04 21:47 | 36.55249 | 16.00807 | 29184 ft | 464 kts | 47° |
| 2026-05-04 21:47 | 36.57278 | 16.03941 | 29655 ft | 464 kts | 47° |
| 2026-05-04 21:47 | 36.59297 | 16.07068 | 30143 ft | 463 kts | 47° |
| 2026-05-04 21:47 | 36.61311 | 16.10192 | 30581 ft | 462 kts | 47° |
| 2026-05-04 21:48 | 36.63320 | 16.13313 | 30985 ft | 462 kts | 46° |
| 2026-05-04 21:48 | 36.65325 | 16.16436 | 31387 ft | 461 kts | 46° |
| 2026-05-04 21:48 | 36.67325 | 16.19557 | 31785 ft | 461 kts | 46° |
| 2026-05-04 21:48 | 36.69316 | 16.22674 | 32201 ft | 460 kts | 46° |
| 2026-05-04 21:49 | 36.71313 | 16.25801 | 32611 ft | 460 kts | 46° |
| 2026-05-04 21:49 | 36.73306 | 16.28917 | 33023 ft | 459 kts | 46° |
| 2026-05-04 21:49 | 36.75298 | 16.32027 | 33450 ft | 459 kts | 46° |
| 2026-05-04 21:49 | 36.77261 | 16.35092 | 33850 ft | 458 kts | 45° |
| 2026-05-04 21:50 | 36.79246 | 16.38196 | 34290 ft | 457 kts | 45° |
| 2026-05-04 21:50 | 36.81220 | 16.41291 | 34697 ft | 455 kts | 45° |
| 2026-05-04 21:50 | 36.83188 | 16.44381 | 35054 ft | 454 kts | 45° |
| 2026-05-04 21:50 | 36.85153 | 16.47468 | 35384 ft | 454 kts | 45° |
| 2026-05-04 21:51 | 36.87117 | 16.50552 | 35700 ft | 453 kts | 45° |
| 2026-05-04 21:51 | 36.89080 | 16.53638 | 36015 ft | 453 kts | 45° |
| 2026-05-04 21:51 | 36.91042 | 16.56729 | 36158 ft | 455 kts | 45° |
| 2026-05-04 21:52 | 36.95006 | 16.62990 | 36179 ft | 462 kts | 45° |
| 2026-05-04 21:52 | 36.98984 | 16.69301 | 36180 ft | 462 kts | 45° |
| 2026-05-04 21:53 | 37.02960 | 16.75602 | 36176 ft | 460 kts | 45° |
| 2026-05-04 21:53 | 37.06923 | 16.81881 | 36181 ft | 459 kts | 44° |
| 2026-05-04 21:54 | 37.11027 | 16.87974 | 36180 ft | 457 kts | 42° |
| 2026-05-04 21:54 | 37.15226 | 16.93944 | 36185 ft | 457 kts | 42° |
| 2026-05-04 21:55 | 37.19401 | 16.99959 | 36187 ft | 457 kts | 43° |
| 2026-05-04 21:55 | 37.23536 | 17.06032 | 36199 ft | 458 kts | 43° |
| 2026-05-04 21:56 | 37.27657 | 17.12122 | 36200 ft | 457 kts | 43° |
| 2026-05-04 21:56 | 37.31786 | 17.18204 | 36198 ft | 457 kts | 43° |
| 2026-05-04 21:57 | 37.35911 | 17.24283 | 36197 ft | 457 kts | 42° |
| 2026-05-04 21:57 | 37.40037 | 17.30357 | 36211 ft | 457 kts | 43° |
| 2026-05-04 21:58 | 37.44148 | 17.36441 | 36207 ft | 456 kts | 43° |
| 2026-05-04 21:58 | 37.48246 | 17.42525 | 36208 ft | 455 kts | 42° |
| 2026-05-04 21:59 | 37.52307 | 17.48570 | 36201 ft | 454 kts | 42° |
| 2026-05-04 21:59 | 37.56388 | 17.54642 | 36199 ft | 454 kts | 42° |
| 2026-05-04 22:00 | 37.60469 | 17.60707 | 36208 ft | 453 kts | 42° |
| 2026-05-04 22:00 | 37.64533 | 17.66782 | 36205 ft | 453 kts | 42° |
| 2026-05-04 22:01 | 37.68589 | 17.72863 | 36197 ft | 452 kts | 42° |
| 2026-05-04 22:01 | 37.72642 | 17.78932 | 36212 ft | 452 kts | 42° |
| 2026-05-04 22:02 | 37.76690 | 17.85000 | 36209 ft | 451 kts | 42° |
| 2026-05-04 22:02 | 37.80729 | 17.91092 | 36195 ft | 452 kts | 42° |
| 2026-05-04 22:03 | 37.84767 | 17.97174 | 36187 ft | 451 kts | 42° |
| 2026-05-04 22:03 | 37.88801 | 18.03263 | 36184 ft | 451 kts | 42° |
| 2026-05-04 22:04 | 37.92827 | 18.09358 | 36181 ft | 451 kts | 42° |
| 2026-05-04 22:04 | 37.96854 | 18.15449 | 36178 ft | 451 kts | 42° |
| 2026-05-04 22:05 | 38.00885 | 18.21564 | 36178 ft | 452 kts | 42° |
| 2026-05-04 22:05 | 38.04915 | 18.27699 | 36171 ft | 453 kts | 43° |
| 2026-05-04 22:06 | 38.08262 | 18.32821 | 36172 ft | 453 kts | 43° |
| 2026-05-04 22:06 | 38.12290 | 18.38983 | 36192 ft | 454 kts | 43° |
| 2026-05-04 22:07 | 38.16321 | 18.45149 | 36210 ft | 453 kts | 43° |
| 2026-05-04 22:07 | 38.20336 | 18.51302 | 36198 ft | 451 kts | 43° |
| 2026-05-04 22:08 | 38.24329 | 18.57443 | 36196 ft | 450 kts | 43° |
| 2026-05-04 22:08 | 38.28316 | 18.63573 | 36191 ft | 449 kts | 43° |
| 2026-05-04 22:09 | 38.32284 | 18.69704 | 36199 ft | 448 kts | 43° |
| 2026-05-04 22:09 | 38.36244 | 18.75821 | 36193 ft | 447 kts | 43° |
| 2026-05-04 22:10 | 38.40195 | 18.81921 | 36208 ft | 446 kts | 43° |
| 2026-05-04 22:10 | 38.44130 | 18.88014 | 36199 ft | 445 kts | 43° |
| 2026-05-04 22:11 | 38.47955 | 18.94154 | 36247 ft | 449 kts | 50° |
| 2026-05-04 22:11 | 38.49409 | 18.97733 | 36508 ft | 460 kts | 61° |
| 2026-05-04 22:11 | 38.50341 | 19.01683 | 36763 ft | 471 kts | 72° |
| 2026-05-04 22:11 | 38.50700 | 19.05869 | 37028 ft | 480 kts | 84° |
| 2026-05-04 22:12 | 38.50457 | 19.10155 | 37148 ft | 489 kts | 95° |
| 2026-05-04 22:12 | 38.49284 | 19.18714 | 37164 ft | 490 kts | 95° |
| 2026-05-04 22:13 | 38.48087 | 19.27271 | 37169 ft | 490 kts | 95° |
| 2026-05-04 22:13 | 38.46882 | 19.35824 | 37169 ft | 490 kts | 95° |
| 2026-05-04 22:14 | 38.45678 | 19.44377 | 37171 ft | 490 kts | 95° |
| 2026-05-04 22:14 | 38.44474 | 19.52931 | 37195 ft | 490 kts | 95° |
| 2026-05-04 22:15 | 38.43260 | 19.61481 | 37190 ft | 490 kts | 95° |
| 2026-05-04 22:15 | 38.42038 | 19.70032 | 37191 ft | 490 kts | 95° |
| 2026-05-04 22:16 | 38.40808 | 19.78585 | 37190 ft | 490 kts | 96° |
| 2026-05-04 22:16 | 38.39584 | 19.87078 | 37202 ft | 490 kts | 96° |
| 2026-05-04 22:17 | 38.38351 | 19.95616 | 37199 ft | 490 kts | 96° |
| 2026-05-04 22:17 | 38.37104 | 20.04156 | 37197 ft | 490 kts | 96° |
| 2026-05-04 22:18 | 38.35842 | 20.12682 | 37193 ft | 490 kts | 96° |
| 2026-05-04 22:18 | 38.34583 | 20.21210 | 37209 ft | 490 kts | 96° |
| 2026-05-04 22:19 | 38.33324 | 20.29728 | 37200 ft | 490 kts | 96° |
| 2026-05-04 22:19 | 38.32041 | 20.38247 | 37194 ft | 490 kts | 96° |
| 2026-05-04 22:20 | 38.30756 | 20.46765 | 37190 ft | 490 kts | 96° |
| 2026-05-04 22:20 | 38.29477 | 20.55281 | 37198 ft | 489 kts | 97° |
| 2026-05-04 22:21 | 38.28192 | 20.63783 | 37195 ft | 489 kts | 97° |
| 2026-05-04 22:21 | 38.26915 | 20.72225 | 37191 ft | 489 kts | 97° |
| 2026-05-04 22:22 | 38.25623 | 20.80770 | 37203 ft | 489 kts | 97° |
| 2026-05-04 22:22 | 38.24325 | 20.89257 | 37199 ft | 488 kts | 97° |
| 2026-05-04 22:23 | 38.23012 | 20.97731 | 37194 ft | 488 kts | 97° |
| 2026-05-04 22:23 | 38.21698 | 21.06142 | 37196 ft | 488 kts | 97° |
| 2026-05-04 22:24 | 38.20374 | 21.14602 | 37224 ft | 488 kts | 97° |
| 2026-05-04 22:24 | 38.19054 | 21.23058 | 37220 ft | 488 kts | 97° |
| 2026-05-04 22:25 | 38.17723 | 21.31507 | 37216 ft | 487 kts | 97° |
| 2026-05-04 22:25 | 38.16372 | 21.39951 | 37215 ft | 488 kts | 99° |
| 2026-05-04 22:26 | 38.13947 | 21.48045 | 37211 ft | 494 kts | 114° |
| 2026-05-04 22:26 | 38.10903 | 21.55867 | 37208 ft | 494 kts | 114° |
| 2026-05-04 22:27 | 38.07869 | 21.63688 | 37211 ft | 494 kts | 114° |
| 2026-05-04 22:27 | 38.04832 | 21.71510 | 37210 ft | 494 kts | 114° |
| 2026-05-04 22:28 | 38.01791 | 21.79332 | 37075 ft | 493 kts | 114° |
| 2026-05-04 22:28 | 38.00271 | 21.83219 | 36496 ft | 493 kts | 114° |
| 2026-05-04 22:28 | 37.98744 | 21.87119 | 35905 ft | 494 kts | 114° |
| 2026-05-04 22:28 | 37.97214 | 21.91020 | 35313 ft | 494 kts | 113° |
| 2026-05-04 22:29 | 37.95682 | 21.94924 | 34714 ft | 495 kts | 113° |
| 2026-05-04 22:29 | 37.94144 | 21.98842 | 34060 ft | 496 kts | 113° |
| 2026-05-04 22:29 | 37.92609 | 22.02750 | 33321 ft | 497 kts | 113° |
| 2026-05-04 22:29 | 37.91086 | 22.06628 | 32580 ft | 498 kts | 113° |
| 2026-05-04 22:30 | 37.89535 | 22.10564 | 31784 ft | 500 kts | 113° |
| 2026-05-04 22:30 | 37.87977 | 22.14513 | 30995 ft | 502 kts | 113° |
| 2026-05-04 22:30 | 37.86415 | 22.18474 | 30152 ft | 505 kts | 113° |
| 2026-05-04 22:30 | 37.84842 | 22.22455 | 29339 ft | 504 kts | 113° |
| 2026-05-04 22:31 | 37.83278 | 22.26398 | 28702 ft | 499 kts | 113° |
| 2026-05-04 22:31 | 37.81727 | 22.30296 | 28077 ft | 494 kts | 113° |
| 2026-05-04 22:31 | 37.80190 | 22.34162 | 27424 ft | 489 kts | 113° |
| 2026-05-04 22:31 | 37.78669 | 22.37984 | 26824 ft | 485 kts | 113° |
| 2026-05-04 22:32 | 37.77158 | 22.41779 | 26245 ft | 481 kts | 113° |
| 2026-05-04 22:32 | 37.75663 | 22.45534 | 25656 ft | 476 kts | 113° |
| 2026-05-04 22:32 | 37.74182 | 22.49248 | 25129 ft | 471 kts | 113° |
| 2026-05-04 22:32 | 37.72718 | 22.52913 | 24587 ft | 465 kts | 113° |
| 2026-05-04 22:33 | 37.71265 | 22.56544 | 24040 ft | 460 kts | 113° |
| 2026-05-04 22:33 | 37.69838 | 22.60150 | 23434 ft | 455 kts | 112° |
| 2026-05-04 22:33 | 37.68501 | 22.63720 | 22437 ft | 446 kts | 111° |
| 2026-05-04 22:33 | 37.67244 | 22.67257 | 21452 ft | 437 kts | 110° |
| 2026-05-04 22:34 | 37.66040 | 22.70744 | 20561 ft | 432 kts | 110° |
| 2026-05-04 22:34 | 37.64855 | 22.74201 | 20121 ft | 426 kts | 110° |
| 2026-05-04 22:34 | 37.63692 | 22.77559 | 19678 ft | 421 kts | 111° |
| 2026-05-04 22:34 | 37.62513 | 22.80912 | 19298 ft | 414 kts | 112° |
| 2026-05-04 22:35 | 37.61350 | 22.84176 | 18936 ft | 406 kts | 112° |
| 2026-05-04 22:35 | 37.60191 | 22.87401 | 18482 ft | 400 kts | 113° |
| 2026-05-04 22:35 | 37.59044 | 22.90573 | 17947 ft | 396 kts | 113° |
| 2026-05-04 22:35 | 37.57906 | 22.93714 | 17397 ft | 392 kts | 113° |
| 2026-05-04 22:36 | 37.56781 | 22.96820 | 16880 ft | 387 kts | 113° |
| 2026-05-04 22:36 | 37.55659 | 22.99930 | 16304 ft | 383 kts | 113° |
| 2026-05-04 22:36 | 37.54576 | 23.02935 | 15774 ft | 380 kts | 113° |
| 2026-05-04 22:36 | 37.53487 | 23.05951 | 15233 ft | 376 kts | 113° |
| 2026-05-04 22:37 | 37.52409 | 23.08936 | 14711 ft | 373 kts | 114° |
| 2026-05-04 22:37 | 37.51338 | 23.11892 | 14198 ft | 369 kts | 114° |
| 2026-05-04 22:37 | 37.50276 | 23.14824 | 13626 ft | 367 kts | 113° |
| 2026-05-04 22:37 | 37.49399 | 23.17809 | 13054 ft | 362 kts | 102° |
| 2026-05-04 22:38 | 37.49072 | 23.20921 | 12511 ft | 356 kts | 89° |
| 2026-05-04 22:38 | 37.49303 | 23.23996 | 11971 ft | 349 kts | 76° |
| 2026-05-04 22:38 | 37.50025 | 23.26859 | 11105 ft | 339 kts | 63° |
| 2026-05-04 22:38 | 37.51119 | 23.29463 | 10334 ft | 337 kts | 58° |
| 2026-05-04 22:39 | 37.52232 | 23.32022 | 10077 ft | 327 kts | 58° |
| 2026-05-04 22:39 | 37.53297 | 23.34485 | 9955 ft | 313 kts | 58° |
| 2026-05-04 22:39 | 37.54315 | 23.36853 | 9819 ft | 302 kts | 58° |
| 2026-05-04 22:39 | 37.55293 | 23.39136 | 9679 ft | 291 kts | 58° |
| 2026-05-04 22:40 | 37.56241 | 23.41342 | 9549 ft | 281 kts | 58° |
| 2026-05-04 22:40 | 37.57161 | 23.43480 | 9334 ft | 275 kts | 58° |
| 2026-05-04 22:40 | 37.58068 | 23.45583 | 9053 ft | 271 kts | 58° |
| 2026-05-04 22:40 | 37.58966 | 23.47664 | 8733 ft | 269 kts | 58° |
| 2026-05-04 22:41 | 37.59850 | 23.49712 | 8542 ft | 262 kts | 58° |
| 2026-05-04 22:41 | 37.60709 | 23.51707 | 8415 ft | 254 kts | 58° |
| 2026-05-04 22:41 | 37.61534 | 23.53630 | 8288 ft | 246 kts | 58° |
| 2026-05-04 22:41 | 37.62334 | 23.55498 | 8159 ft | 238 kts | 58° |
| 2026-05-04 22:42 | 37.63111 | 23.57314 | 7988 ft | 233 kts | 58° |
| 2026-05-04 22:42 | 37.63878 | 23.59100 | 7722 ft | 231 kts | 58° |
| 2026-05-04 22:42 | 37.64637 | 23.60867 | 7293 ft | 228 kts | 58° |
| 2026-05-04 22:42 | 37.65390 | 23.62621 | 6827 ft | 226 kts | 58° |
| 2026-05-04 22:43 | 37.66126 | 23.64336 | 6378 ft | 224 kts | 59° |
| 2026-05-04 22:43 | 37.66865 | 23.66064 | 5884 ft | 223 kts | 59° |
| 2026-05-04 22:43 | 37.67600 | 23.67789 | 5371 ft | 223 kts | 59° |
| 2026-05-04 22:43 | 37.68490 | 23.69382 | 4950 ft | 223 kts | 44° |
| 2026-05-04 22:44 | 37.69673 | 23.70623 | 4623 ft | 222 kts | 35° |
| 2026-05-04 22:44 | 37.70913 | 23.71787 | 4289 ft | 222 kts | 35° |
| 2026-05-04 22:44 | 37.72151 | 23.72956 | 3970 ft | 222 kts | 35° |
| 2026-05-04 22:44 | 37.73391 | 23.74127 | 3703 ft | 220 kts | 35° |
| 2026-05-04 22:45 | 37.74593 | 23.75263 | 3578 ft | 212 kts | 35° |
| 2026-05-04 22:45 | 37.76876 | 23.77415 | 3299 ft | 197 kts | 35° |
| 2026-05-04 22:45 | 37.77959 | 23.78438 | 3103 ft | 194 kts | 34° |
| 2026-05-04 22:46 | 37.79041 | 23.79461 | 3024 ft | 192 kts | 34° |
| 2026-05-04 22:46 | 37.80092 | 23.80455 | 3017 ft | 187 kts | 34° |
| 2026-05-04 22:46 | 37.81133 | 23.81440 | 2950 ft | 186 kts | 34° |
| 2026-05-04 22:46 | 37.82167 | 23.82418 | 2765 ft | 185 kts | 34° |
| 2026-05-04 22:47 | 37.83197 | 23.83394 | 2537 ft | 185 kts | 34° |
| 2026-05-04 22:47 | 37.84227 | 23.84369 | 2289 ft | 183 kts | 34° |
| 2026-05-04 22:47 | 37.85223 | 23.85314 | 2060 ft | 173 kts | 34° |
| 2026-05-04 22:47 | 37.86145 | 23.86189 | 1820 ft | 160 kts | 34° |
| 2026-05-04 22:48 | 37.86999 | 23.86999 | 1632 ft | 149 kts | 34° |
| 2026-05-04 22:48 | 37.87814 | 23.87771 | 1387 ft | 144 kts | 34° |
| 2026-05-04 22:48 | 37.88610 | 23.88530 | 1237 ft | 143 kts | 35° |
| 2026-05-04 22:48 | 37.89402 | 23.89284 | 1058 ft | 142 kts | 36° |
| 2026-05-04 22:49 | 37.90187 | 23.90042 | 851 ft | 142 kts | 34° |
| 2026-05-04 22:49 | 37.90982 | 23.90778 | 661 ft | 141 kts | 34° |
| 2026-05-04 22:49 | 37.91765 | 23.91526 | 475 ft | 141 kts | 35° |
| 2026-05-04 22:49 | 37.92549 | 23.92274 | 309 ft | 139 kts | 36° |
| 2026-05-04 22:50 | 37.93223 | 23.92912 | 293 ft | 98 kts | 37° |
| 2026-05-04 22:50 | 37.93633 | 23.93302 | 296 ft | 51 kts | 37° |
| 2026-05-04 22:50 | 37.93839 | 23.93505 | 294 ft | 28 kts | 48° |
| 2026-05-04 22:50 | 37.93940 | 23.93717 | 297 ft | 28 kts | 67° |
| 2026-05-04 22:51 | 37.94015 | 23.93930 | 301 ft | 23 kts | 62° |
| 2026-05-04 22:51 | 37.94117 | 23.94038 | 301 ft | 20 kts | 36° |
| 2026-05-04 22:51 | 37.94235 | 23.94151 | 302 ft | 22 kts | 37° |
| 2026-05-04 22:51 | 37.94368 | 23.94276 | 303 ft | 25 kts | 37° |
| 2026-05-04 22:52 | 37.94514 | 23.94414 | 303 ft | 28 kts | 37° |
| 2026-05-04 22:52 | 37.94652 | 23.94546 | 305 ft | 18 kts | 37° |
| 2026-05-04 22:52 | 37.94673 | 23.94648 | 302 ft | 15 kts | 127° |
| 2026-05-04 22:52 | 37.94603 | 23.94763 | 301 ft | 18 kts | 127° |
| 2026-05-04 22:53 | 37.94521 | 23.94900 | 302 ft | 21 kts | 127° |
| 2026-05-04 22:53 | 37.94438 | 23.95041 | 303 ft | 18 kts | 127° |
| 2026-05-04 22:53 | 37.94363 | 23.95168 | 303 ft | 13 kts | 127° |
| 2026-05-04 22:53 | 37.94301 | 23.95272 | 301 ft | 16 kts | 126° |
| 2026-05-04 22:54 | 37.94252 | 23.95353 | 301 ft | 17 kts | 127° |
| 2026-05-04 22:54 | 37.94192 | 23.95455 | 301 ft | 12 kts | 127° |
| 2026-05-04 22:54 | 37.94146 | 23.95471 | 301 ft | 8 kts | 220° |
| 2026-05-04 22:54 | 37.94101 | 23.95427 | 302 ft | 6 kts | 217° |
| 2026-05-04 22:55 | 37.94093 | 23.95420 | 301 ft | 0 kts | 217° |